sensor_id;sensor_type;location;lat;lon;timestamp;pressure;altitude;pressure_sealevel;temperature;humidity
21276;BME280;36472;52.170;20.884;2023-10-09T00:01:28;101224.28;;;5.39;65.37
21276;BME280;36472;52.170;20.884;2023-10-09T00:03:59;101224.31;;;5.38;64.87
21276;BME280;36472;52.170;20.884;2023-10-09T00:06:30;101215.66;;;5.37;65.26
21276;BME280;36472;52.170;20.884;2023-10-09T00:09:06;101225.28;;;5.35;65.41
21276;BME280;36472;52.170;20.884;2023-10-09T00:11:59;101221.13;;;5.30;65.45
21276;BME280;36472;52.170;20.884;2023-10-09T00:14:30;101216.03;;;5.25;65.64
21276;BME280;36472;52.170;20.884;2023-10-09T00:17:04;101212.56;;;5.26;66.13
21276;BME280;36472;52.170;20.884;2023-10-09T00:19:50;101210.78;;;5.27;66.30
21276;BME280;36472;52.170;20.884;2023-10-09T00:22:22;101212.59;;;5.24;66.14
21276;BME280;36472;52.170;20.884;2023-10-09T00:24:58;101203.00;;;5.25;66.25
21276;BME280;36472;52.170;20.884;2023-10-09T00:27:42;101210.06;;;5.21;66.22
21276;BME280;36472;52.170;20.884;2023-10-09T00:30:16;101211.72;;;5.24;66.33
21276;BME280;36472;52.170;20.884;2023-10-09T00:32:48;101202.06;;;5.28;66.09
21276;BME280;36472;52.170;20.884;2023-10-09T00:35:28;101183.09;;;5.22;66.35
21276;BME280;36472;52.170;20.884;2023-10-09T00:38:22;101181.31;;;5.24;66.08
21276;BME280;36472;52.170;20.884;2023-10-09T00:40:52;101173.66;;;5.18;66.39
21276;BME280;36472;52.170;20.884;2023-10-09T00:43:30;101173.63;;;5.20;66.71
21276;BME280;36472;52.170;20.884;2023-10-09T00:46:01;101174.56;;;5.17;66.69
21276;BME280;36472;52.170;20.884;2023-10-09T00:48:41;101178.09;;;5.16;66.96
21276;BME280;36472;52.170;20.884;2023-10-09T00:51:16;101167.69;;;5.15;67.11
21276;BME280;36472;52.170;20.884;2023-10-09T00:53:49;101169.38;;;5.16;67.04
21276;BME280;36472;52.170;20.884;2023-10-09T00:56:21;101168.53;;;5.15;67.45
21276;BME280;36472;52.170;20.884;2023-10-09T00:58:58;101168.78;;;5.08;67.59
21276;BME280;36472;52.170;20.884;2023-10-09T01:01:37;101161.72;;;5.11;67.26
21276;BME280;36472;52.170;20.884;2023-10-09T01:04:11;101161.81;;;5.08;67.28
21276;BME280;36472;52.170;20.884;2023-10-09T01:06:45;101157.44;;;5.09;67.53
21276;BME280;36472;52.170;20.884;2023-10-09T01:09:21;101158.47;;;5.04;68.02
21276;BME280;36472;52.170;20.884;2023-10-09T01:11:50;101156.59;;;5.08;68.10
21276;BME280;36472;52.170;20.884;2023-10-09T01:14:32;101157.44;;;5.09;68.15
21276;BME280;36472;52.170;20.884;2023-10-09T01:17:04;101146.09;;;5.11;67.79
21276;BME280;36472;52.170;20.884;2023-10-09T01:19:37;101142.69;;;5.09;67.92
21276;BME280;36472;52.170;20.884;2023-10-09T01:22:06;101150.56;;;5.08;67.68
21276;BME280;36472;52.170;20.884;2023-10-09T01:24:43;101141.06;;;5.05;68.46
21276;BME280;36472;52.170;20.884;2023-10-09T01:27:17;101135.94;;;5.02;68.30
21276;BME280;36472;52.170;20.884;2023-10-09T01:29:50;101133.50;;;4.97;68.53
21276;BME280;36472;52.170;20.884;2023-10-09T01:32:20;101123.88;;;4.99;68.48
21276;BME280;36472;52.170;20.884;2023-10-09T01:34:49;101122.91;;;5.02;68.60
21276;BME280;36472;52.170;20.884;2023-10-09T01:37:20;101123.13;;;4.96;68.41
21276;BME280;36472;52.170;20.884;2023-10-09T01:39:53;101129.09;;;4.99;68.86
21276;BME280;36472;52.170;20.884;2023-10-09T01:46:58;101129.22;;;4.95;69.14
21276;BME280;36472;52.170;20.884;2023-10-09T01:49:27;101130.06;;;4.95;69.17
21276;BME280;36472;52.170;20.884;2023-10-09T01:51:59;101125.81;;;4.93;69.61
21276;BME280;36472;52.170;20.884;2023-10-09T01:54:36;101131.69;;;4.99;69.59
21276;BME280;36472;52.170;20.884;2023-10-09T01:57:08;101119.38;;;5.04;69.11
21276;BME280;36472;52.170;20.884;2023-10-09T01:59:42;101120.19;;;5.06;69.07
21276;BME280;36472;52.170;20.884;2023-10-09T02:02:15;101115.75;;;5.09;68.64
21276;BME280;36472;52.170;20.884;2023-10-09T02:04:57;101116.53;;;5.12;68.25
21276;BME280;36472;52.170;20.884;2023-10-09T02:07:39;101115.63;;;5.13;67.91
21276;BME280;36472;52.170;20.884;2023-10-09T02:10:21;101118.31;;;5.10;68.05
21276;BME280;36472;52.170;20.884;2023-10-09T02:12:57;101121.72;;;5.12;67.79
21276;BME280;36472;52.170;20.884;2023-10-09T02:15:30;101129.66;;;5.09;68.30
21276;BME280;36472;52.170;20.884;2023-10-09T02:18:22;101119.16;;;5.11;68.04
21276;BME280;36472;52.170;20.884;2023-10-09T02:21:08;101123.53;;;5.10;68.29
21276;BME280;36472;52.170;20.884;2023-10-09T02:23:43;101126.13;;;5.10;68.33
21276;BME280;36472;52.170;20.884;2023-10-09T02:26:19;101125.34;;;5.08;67.65
21276;BME280;36472;52.170;20.884;2023-10-09T02:28:56;101114.75;;;5.14;67.72
21276;BME280;36472;52.170;20.884;2023-10-09T02:31:28;101119.13;;;5.12;67.73
21276;BME280;36472;52.170;20.884;2023-10-09T02:34:04;101119.84;;;5.17;67.67
21276;BME280;36472;52.170;20.884;2023-10-09T02:36:35;101111.97;;;5.19;67.73
21276;BME280;36472;52.170;20.884;2023-10-09T02:39:10;101097.31;;;5.16;68.11
21276;BME280;36472;52.170;20.884;2023-10-09T02:41:52;101102.47;;;5.18;68.09
21276;BME280;36472;52.170;20.884;2023-10-09T02:44:27;101102.41;;;5.19;68.28
21276;BME280;36472;52.170;20.884;2023-10-09T02:46:59;101109.31;;;5.20;67.78
21276;BME280;36472;52.170;20.884;2023-10-09T02:49:33;101098.97;;;5.17;67.90
21276;BME280;36472;52.170;20.884;2023-10-09T02:52:02;101097.97;;;5.23;67.88
21276;BME280;36472;52.170;20.884;2023-10-09T02:54:35;101093.50;;;5.27;67.67
21276;BME280;36472;52.170;20.884;2023-10-09T02:57:09;101094.28;;;5.29;67.50
21276;BME280;36472;52.170;20.884;2023-10-09T02:59:45;101095.09;;;5.31;67.88
21276;BME280;36472;52.170;20.884;2023-10-09T03:02:15;101085.63;;;5.28;67.99
21276;BME280;36472;52.170;20.884;2023-10-09T03:04:44;101099.38;;;5.33;67.67
21276;BME280;36472;52.170;20.884;2023-10-09T03:07:13;101092.41;;;5.34;67.98
21276;BME280;36472;52.170;20.884;2023-10-09T03:09:43;101092.31;;;5.37;67.56
21276;BME280;36472;52.170;20.884;2023-10-09T03:12:11;101086.16;;;5.38;67.97
21276;BME280;36472;52.170;20.884;2023-10-09T03:14:41;101088.72;;;5.39;68.14
21276;BME280;36472;52.170;20.884;2023-10-09T03:17:12;101079.03;;;5.43;67.59
21276;BME280;36472;52.170;20.884;2023-10-09T03:19:43;101075.44;;;5.47;67.45
21276;BME280;36472;52.170;20.884;2023-10-09T03:22:13;101080.53;;;5.52;67.73
21276;BME280;36472;52.170;20.884;2023-10-09T03:24:42;101089.13;;;5.54;67.89
21276;BME280;36472;52.170;20.884;2023-10-09T03:31:50;101088.06;;;5.59;67.44
21276;BME280;36472;52.170;20.884;2023-10-09T03:34:20;101083.75;;;5.58;67.37
21276;BME280;36472;52.170;20.884;2023-10-09T03:36:49;101082.03;;;5.59;67.18
21276;BME280;36472;52.170;20.884;2023-10-09T03:39:31;101069.06;;;5.56;67.39
21276;BME280;36472;52.170;20.884;2023-10-09T03:42:07;101065.44;;;5.60;67.67
21276;BME280;36472;52.170;20.884;2023-10-09T03:44:47;101064.50;;;5.62;67.31
21276;BME280;36472;52.170;20.884;2023-10-09T03:47:22;101065.31;;;5.65;67.80
21276;BME280;36472;52.170;20.884;2023-10-09T03:49:53;101072.22;;;5.66;67.69
21276;BME280;36472;52.170;20.884;2023-10-09T03:52:24;101061.09;;;5.60;67.78
21276;BME280;36472;52.170;20.884;2023-10-09T03:54:55;101075.78;;;5.63;67.63
21276;BME280;36472;52.170;20.884;2023-10-09T03:57:24;101074.84;;;5.66;66.99
21276;BME280;36472;52.170;20.884;2023-10-09T03:59:53;101072.19;;;5.67;66.74
21276;BME280;36472;52.170;20.884;2023-10-09T04:02:24;101073.81;;;5.70;67.06
21276;BME280;36472;52.170;20.884;2023-10-09T04:04:55;101069.41;;;5.72;66.84
21276;BME280;36472;52.170;20.884;2023-10-09T04:07:24;101060.81;;;5.68;67.07
21276;BME280;36472;52.170;20.884;2023-10-09T04:09:53;101049.75;;;5.61;67.47
21276;BME280;36472;52.170;20.884;2023-10-09T04:17:42;101066.88;;;5.69;67.56
21276;BME280;36472;52.170;20.884;2023-10-09T04:24:43;101059.66;;;5.77;67.72
21276;BME280;36472;52.170;20.884;2023-10-09T04:31:48;101042.13;;;5.80;67.48
21276;BME280;36472;52.170;20.884;2023-10-09T04:34:19;101039.47;;;5.82;67.33
21276;BME280;36472;52.170;20.884;2023-10-09T04:36:51;101024.81;;;5.79;67.35
21276;BME280;36472;52.170;20.884;2023-10-09T04:39:24;101027.22;;;5.84;67.96
21276;BME280;36472;52.170;20.884;2023-10-09T04:46:27;101024.31;;;5.93;67.10
21276;BME280;36472;52.170;20.884;2023-10-09T04:48:56;101012.97;;;5.94;67.27
21276;BME280;36472;52.170;20.884;2023-10-09T04:51:34;101008.66;;;5.93;67.44
21276;BME280;36472;52.170;20.884;2023-10-09T04:54:05;101005.19;;;5.93;67.72
21276;BME280;36472;52.170;20.884;2023-10-09T04:56:42;100991.28;;;5.92;67.55
21276;BME280;36472;52.170;20.884;2023-10-09T04:59:20;100993.00;;;5.93;68.00
21276;BME280;36472;52.170;20.884;2023-10-09T05:01:54;100993.78;;;5.95;68.03
21276;BME280;36472;52.170;20.884;2023-10-09T05:04:27;100985.88;;;5.98;67.58
21276;BME280;36472;52.170;20.884;2023-10-09T05:16:12;100971.13;;;5.97;67.36
21276;BME280;36472;52.170;20.884;2023-10-09T05:18:49;100962.59;;;5.92;67.76
21276;BME280;36472;52.170;20.884;2023-10-09T05:21:26;100949.66;;;5.89;68.16
21276;BME280;36472;52.170;20.884;2023-10-09T05:24:05;100955.13;;;5.83;68.70
21276;BME280;36472;52.170;20.884;2023-10-09T05:26:48;100954.31;;;5.81;69.16
21276;BME280;36472;52.170;20.884;2023-10-09T05:29:23;100957.81;;;5.80;69.04
21276;BME280;36472;52.170;20.884;2023-10-09T05:32:09;100975.88;;;5.86;68.94
21276;BME280;36472;52.170;20.884;2023-10-09T05:34:57;100967.03;;;5.90;68.38
21276;BME280;36472;52.170;20.884;2023-10-09T05:37:43;100958.19;;;5.94;68.71
21276;BME280;36472;52.170;20.884;2023-10-09T05:40:13;100965.00;;;5.98;68.64
21276;BME280;36472;52.170;20.884;2023-10-09T05:42:51;100961.44;;;6.01;68.68
21276;BME280;36472;52.170;20.884;2023-10-09T05:45:30;100963.25;;;5.99;68.96
21276;BME280;36472;52.170;20.884;2023-10-09T05:48:17;100965.75;;;6.02;69.24
21276;BME280;36472;52.170;20.884;2023-10-09T05:56:00;100951.59;;;6.08;69.17
21276;BME280;36472;52.170;20.884;2023-10-09T05:58:43;100946.28;;;6.11;69.23
21276;BME280;36472;52.170;20.884;2023-10-09T06:01:32;100941.00;;;6.12;68.99
21276;BME280;36472;52.170;20.884;2023-10-09T06:04:30;100933.97;;;6.14;68.97
21276;BME280;36472;52.170;20.884;2023-10-09T06:07:17;100933.56;;;6.25;68.86
21276;BME280;36472;52.170;20.884;2023-10-09T06:09:51;100932.66;;;6.26;68.85
21276;BME280;36472;52.170;20.884;2023-10-09T06:12:26;100936.91;;;6.29;68.94
21276;BME280;36472;52.170;20.884;2023-10-09T06:15:16;100953.88;;;6.41;68.56
21276;BME280;36472;52.170;20.884;2023-10-09T06:17:58;100954.38;;;6.49;68.37
21276;BME280;36472;52.170;20.884;2023-10-09T06:20:47;100938.44;;;6.57;67.89
21276;BME280;36472;52.170;20.884;2023-10-09T06:23:44;100936.72;;;6.55;67.81
21276;BME280;36472;52.170;20.884;2023-10-09T06:26:37;100942.66;;;6.59;67.90
21276;BME280;36472;52.170;20.884;2023-10-09T06:29:09;100950.25;;;6.65;67.90
21276;BME280;36472;52.170;20.884;2023-10-09T06:31:52;100959.56;;;6.72;67.94
21276;BME280;36472;52.170;20.884;2023-10-09T06:34:28;100953.38;;;6.75;67.41
21276;BME280;36472;52.170;20.884;2023-10-09T06:37:03;100957.47;;;6.81;67.93
21276;BME280;36472;52.170;20.884;2023-10-09T06:39:46;100950.44;;;6.83;67.40
21276;BME280;36472;52.170;20.884;2023-10-09T06:42:32;100938.41;;;6.79;67.05
21276;BME280;36472;52.170;20.884;2023-10-09T06:45:15;100943.53;;;6.82;66.12
21276;BME280;36472;52.170;20.884;2023-10-09T06:47:48;100940.69;;;6.86;65.92
21276;BME280;36472;52.170;20.884;2023-10-09T06:50:24;100940.56;;;6.89;66.20
21276;BME280;36472;52.170;20.884;2023-10-09T06:52:54;100939.56;;;6.93;65.61
21276;BME280;36472;52.170;20.884;2023-10-09T06:55:54;100938.69;;;6.93;65.58
21276;BME280;36472;52.170;20.884;2023-10-09T06:58:33;100942.75;;;7.00;65.49
21276;BME280;36472;52.170;20.884;2023-10-09T07:01:11;100940.59;;;7.10;65.14
21276;BME280;36472;52.170;20.884;2023-10-09T07:03:51;100946.66;;;7.10;64.44
21276;BME280;36472;52.170;20.884;2023-10-09T07:06:27;100943.09;;;7.13;64.46
21276;BME280;36472;52.170;20.884;2023-10-09T07:09:15;100928.97;;;7.17;64.62
21276;BME280;36472;52.170;20.884;2023-10-09T07:11:50;100935.25;;;7.34;64.50
21276;BME280;36472;52.170;20.884;2023-10-09T07:14:26;100950.75;;;7.38;64.90
21276;BME280;36472;52.170;20.884;2023-10-09T07:17:15;100941.72;;;7.45;64.29
21276;BME280;36472;52.170;20.884;2023-10-09T07:20:12;100950.72;;;7.59;64.08
21276;BME280;36472;52.170;20.884;2023-10-09T07:23:04;100964.59;;;7.80;63.30
21276;BME280;36472;52.170;20.884;2023-10-09T07:25:42;100964.47;;;7.83;61.95
21276;BME280;36472;52.170;20.884;2023-10-09T07:28:24;100952.47;;;7.98;61.27
21276;BME280;36472;52.170;20.884;2023-10-09T07:31:05;100956.84;;;8.16;61.84
21276;BME280;36472;52.170;20.884;2023-10-09T07:33:38;100960.53;;;8.31;60.66
21276;BME280;36472;52.170;20.884;2023-10-09T07:36:26;100953.03;;;8.23;59.98
21276;BME280;36472;52.170;20.884;2023-10-09T07:39:06;100943.84;;;8.15;60.43
21276;BME280;36472;52.170;20.884;2023-10-09T07:41:45;100936.06;;;8.13;59.88
21276;BME280;36472;52.170;20.884;2023-10-09T07:44:25;100943.34;;;7.88;60.36
21276;BME280;36472;52.170;20.884;2023-10-09T07:47:05;100945.66;;;8.13;60.04
21276;BME280;36472;52.170;20.884;2023-10-09T07:49:47;100952.31;;;8.39;59.98
21276;BME280;36472;52.170;20.884;2023-10-09T07:52:27;100947.38;;;8.52;59.25
21276;BME280;36472;52.170;20.884;2023-10-09T07:54:57;100952.13;;;8.63;58.52
21276;BME280;36472;52.170;20.884;2023-10-09T07:57:34;100947.03;;;8.77;59.14
21276;BME280;36472;52.170;20.884;2023-10-09T08:00:13;100942.28;;;9.03;59.28
21276;BME280;36472;52.170;20.884;2023-10-09T08:02:56;100936.09;;;9.21;58.24
21276;BME280;36472;52.170;20.884;2023-10-09T08:05:29;100938.31;;;9.29;56.92
21276;BME280;36472;52.170;20.884;2023-10-09T08:08:02;100931.84;;;9.36;56.25
21276;BME280;36472;52.170;20.884;2023-10-09T08:11:07;100935.22;;;9.55;55.54
21276;BME280;36472;52.170;20.884;2023-10-09T08:13:54;100934.41;;;9.71;55.53
21276;BME280;36472;52.170;20.884;2023-10-09T08:16:39;100931.03;;;9.85;55.55
21276;BME280;36472;52.170;20.884;2023-10-09T08:19:09;100930.75;;;9.73;54.99
21276;BME280;36472;52.170;20.884;2023-10-09T08:22:00;100921.41;;;10.01;55.06
21276;BME280;36472;52.170;20.884;2023-10-09T08:24:56;100914.81;;;9.94;54.13
21276;BME280;36472;52.170;20.884;2023-10-09T08:27:28;100913.44;;;10.03;54.64
21276;BME280;36472;52.170;20.884;2023-10-09T08:30:15;100914.34;;;10.18;54.73
21276;BME280;36472;52.170;20.884;2023-10-09T08:32:58;100911.56;;;10.21;54.32
21276;BME280;36472;52.170;20.884;2023-10-09T08:35:35;100908.28;;;10.33;53.22
21276;BME280;36472;52.170;20.884;2023-10-09T08:38:17;100914.63;;;10.45;52.43
21276;BME280;36472;52.170;20.884;2023-10-09T08:40:52;100921.56;;;10.30;53.30
21276;BME280;36472;52.170;20.884;2023-10-09T08:43:27;100913.50;;;10.65;53.41
21276;BME280;36472;52.170;20.884;2023-10-09T08:46:01;100915.25;;;10.80;52.84
21276;BME280;36472;52.170;20.884;2023-10-09T08:48:32;100913.78;;;11.05;53.34
21276;BME280;36472;52.170;20.884;2023-10-09T08:51:03;100900.88;;;11.16;52.60
21276;BME280;36472;52.170;20.884;2023-10-09T08:53:34;100903.00;;;11.10;51.10
21276;BME280;36472;52.170;20.884;2023-10-09T08:56:11;100906.47;;;11.10;51.33
21276;BME280;36472;52.170;20.884;2023-10-09T08:58:42;100901.00;;;11.29;50.16
21276;BME280;36472;52.170;20.884;2023-10-09T09:01:16;100897.69;;;11.40;49.12
21276;BME280;36472;52.170;20.884;2023-10-09T09:03:50;100901.56;;;11.49;48.82
21276;BME280;36472;52.170;20.884;2023-10-09T09:06:19;100901.63;;;12.05;47.22
21276;BME280;36472;52.170;20.884;2023-10-09T09:08:50;100886.38;;;12.10;48.32
21276;BME280;36472;52.170;20.884;2023-10-09T09:11:23;100883.88;;;12.48;48.07
21276;BME280;36472;52.170;20.884;2023-10-09T09:14:02;100876.47;;;12.81;47.34
21276;BME280;36472;52.170;20.884;2023-10-09T09:16:35;100867.09;;;12.89;47.13
21276;BME280;36472;52.170;20.884;2023-10-09T09:19:07;100871.19;;;12.81;46.01
21276;BME280;36472;52.170;20.884;2023-10-09T09:21:50;100848.53;;;12.78;45.72
21276;BME280;36472;52.170;20.884;2023-10-09T09:24:22;100849.78;;;12.72;45.17
21276;BME280;36472;52.170;20.884;2023-10-09T09:27:03;100855.16;;;12.71;45.29
21276;BME280;36472;52.170;20.884;2023-10-09T09:29:46;100860.22;;;12.61;45.43
21276;BME280;36472;52.170;20.884;2023-10-09T09:32:29;100855.56;;;12.52;45.97
21276;BME280;36472;52.170;20.884;2023-10-09T09:35:12;100854.47;;;12.14;46.48
21276;BME280;36472;52.170;20.884;2023-10-09T09:37:53;100852.03;;;12.11;47.30
21276;BME280;36472;52.170;20.884;2023-10-09T09:40:31;100856.69;;;11.79;46.81
21276;BME280;36472;52.170;20.884;2023-10-09T09:43:09;100855.47;;;11.70;46.81
21276;BME280;36472;52.170;20.884;2023-10-09T09:45:49;100847.44;;;11.86;47.92
21276;BME280;36472;52.170;20.884;2023-10-09T09:48:18;100847.66;;;11.97;47.37
21276;BME280;36472;52.170;20.884;2023-10-09T09:50:49;100836.03;;;12.14;46.87
21276;BME280;36472;52.170;20.884;2023-10-09T09:53:22;100826.72;;;12.09;46.63
21276;BME280;36472;52.170;20.884;2023-10-09T09:55:54;100829.59;;;12.19;45.76
21276;BME280;36472;52.170;20.884;2023-10-09T09:58:27;100823.81;;;12.26;44.40
21276;BME280;36472;52.170;20.884;2023-10-09T10:01:04;100818.97;;;12.20;44.95
21276;BME280;36472;52.170;20.884;2023-10-09T10:03:49;100825.13;;;12.33;45.33
21276;BME280;36472;52.170;20.884;2023-10-09T10:06:21;100811.72;;;12.24;43.61
21276;BME280;36472;52.170;20.884;2023-10-09T10:08:54;100806.97;;;12.29;44.79
21276;BME280;36472;52.170;20.884;2023-10-09T10:11:47;100806.78;;;12.45;45.63
21276;BME280;36472;52.170;20.884;2023-10-09T10:14:20;100800.38;;;12.49;44.51
21276;BME280;36472;52.170;20.884;2023-10-09T10:17:01;100803.88;;;12.49;44.58
21276;BME280;36472;52.170;20.884;2023-10-09T10:19:59;100806.59;;;12.48;44.38
21276;BME280;36472;52.170;20.884;2023-10-09T10:22:30;100805.53;;;12.38;44.66
21276;BME280;36472;52.170;20.884;2023-10-09T10:25:01;100806.03;;;12.30;44.88
21276;BME280;36472;52.170;20.884;2023-10-09T10:27:37;100796.97;;;12.34;45.19
21276;BME280;36472;52.170;20.884;2023-10-09T10:30:29;100791.34;;;12.26;45.83
21276;BME280;36472;52.170;20.884;2023-10-09T10:33:04;100794.84;;;12.26;45.78
21276;BME280;36472;52.170;20.884;2023-10-09T10:35:44;100782.91;;;12.21;45.44
21276;BME280;36472;52.170;20.884;2023-10-09T10:38:32;100776.00;;;12.32;46.18
21276;BME280;36472;52.170;20.884;2023-10-09T10:41:12;100780.34;;;12.46;45.94
21276;BME280;36472;52.170;20.884;2023-10-09T10:43:46;100771.16;;;12.39;46.14
21276;BME280;36472;52.170;20.884;2023-10-09T10:46:27;100771.69;;;12.44;46.43
21276;BME280;36472;52.170;20.884;2023-10-09T10:49:10;100771.06;;;12.41;45.69
21276;BME280;36472;52.170;20.884;2023-10-09T10:51:49;100772.00;;;12.40;45.58
21276;BME280;36472;52.170;20.884;2023-10-09T10:54:29;100757.97;;;12.39;45.96
21276;BME280;36472;52.170;20.884;2023-10-09T10:57:36;100764.41;;;12.35;45.64
21276;BME280;36472;52.170;20.884;2023-10-09T11:00:23;100766.06;;;12.23;45.90
21276;BME280;36472;52.170;20.884;2023-10-09T11:03:09;100759.63;;;12.14;46.19
21276;BME280;36472;52.170;20.884;2023-10-09T11:05:47;100754.47;;;12.13;46.62
21276;BME280;36472;52.170;20.884;2023-10-09T11:08:25;100761.81;;;12.08;46.98
21276;BME280;36472;52.170;20.884;2023-10-09T11:11:14;100761.28;;;12.03;47.23
21276;BME280;36472;52.170;20.884;2023-10-09T11:13:44;100759.97;;;11.95;48.33
21276;BME280;36472;52.170;20.884;2023-10-09T11:16:25;100754.72;;;11.81;48.45
21276;BME280;36472;52.170;20.884;2023-10-09T11:19:12;100753.13;;;11.78;48.59
21276;BME280;36472;52.170;20.884;2023-10-09T11:21:51;100752.16;;;11.67;49.68
21276;BME280;36472;52.170;20.884;2023-10-09T11:24:42;100754.78;;;11.67;49.89
21276;BME280;36472;52.170;20.884;2023-10-09T11:27:14;100755.72;;;11.66;50.74
21276;BME280;36472;52.170;20.884;2023-10-09T11:29:51;100753.91;;;11.66;50.69
21276;BME280;36472;52.170;20.884;2023-10-09T11:32:22;100753.22;;;11.50;51.31
21276;BME280;36472;52.170;20.884;2023-10-09T11:35:11;100757.84;;;11.46;52.18
21276;BME280;36472;52.170;20.884;2023-10-09T11:37:39;100749.19;;;11.44;52.68
21276;BME280;36472;52.170;20.884;2023-10-09T11:40:30;100739.28;;;11.62;53.17
21276;BME280;36472;52.170;20.884;2023-10-09T11:43:21;100736.75;;;11.60;53.68
21276;BME280;36472;52.170;20.884;2023-10-09T11:46:12;100738.44;;;11.62;53.70
21276;BME280;36472;52.170;20.884;2023-10-09T11:49:07;100733.28;;;11.60;54.08
21276;BME280;36472;52.170;20.884;2023-10-09T11:52:06;100734.41;;;11.56;54.66
21276;BME280;36472;52.170;20.884;2023-10-09T11:54:55;100720.88;;;11.48;54.97
21276;BME280;36472;52.170;20.884;2023-10-09T11:57:26;100719.22;;;11.47;55.52
21276;BME280;36472;52.170;20.884;2023-10-09T12:00:03;100726.50;;;11.56;55.51
21276;BME280;36472;52.170;20.884;2023-10-09T12:02:56;100722.66;;;11.62;55.85
21276;BME280;36472;52.170;20.884;2023-10-09T12:05:33;100716.63;;;11.59;55.49
21276;BME280;36472;52.170;20.884;2023-10-09T12:08:03;100719.69;;;11.66;55.71
21276;BME280;36472;52.170;20.884;2023-10-09T12:10:36;100714.13;;;11.44;55.48
21276;BME280;36472;52.170;20.884;2023-10-09T12:13:07;100721.19;;;11.43;56.27
21276;BME280;36472;52.170;20.884;2023-10-09T12:15:37;100715.19;;;11.41;56.14
21276;BME280;36472;52.170;20.884;2023-10-09T12:18:07;100709.19;;;11.25;56.58
21276;BME280;36472;52.170;20.884;2023-10-09T12:20:43;100712.94;;;11.35;56.56
21276;BME280;36472;52.170;20.884;2023-10-09T12:23:21;100699.50;;;11.39;56.84
21276;BME280;36472;52.170;20.884;2023-10-09T12:25:51;100706.53;;;11.39;56.79
21276;BME280;36472;52.170;20.884;2023-10-09T12:28:24;100695.25;;;11.37;56.82
21276;BME280;36472;52.170;20.884;2023-10-09T12:30:55;100691.34;;;11.30;56.91
21276;BME280;36472;52.170;20.884;2023-10-09T12:33:29;100696.00;;;11.39;57.33
21276;BME280;36472;52.170;20.884;2023-10-09T12:35:58;100709.69;;;11.44;57.18
21276;BME280;36472;52.170;20.884;2023-10-09T12:38:30;100710.31;;;11.35;57.04
21276;BME280;36472;52.170;20.884;2023-10-09T12:41:03;100714.50;;;11.37;57.46
21276;BME280;36472;52.170;20.884;2023-10-09T12:43:36;100715.97;;;11.14;57.32
21276;BME280;36472;52.170;20.884;2023-10-09T12:46:08;100711.66;;;11.13;58.26
21276;BME280;36472;52.170;20.884;2023-10-09T12:48:37;100713.34;;;11.14;58.60
21276;BME280;36472;52.170;20.884;2023-10-09T12:51:06;100706.47;;;11.12;58.19
21276;BME280;36472;52.170;20.884;2023-10-09T12:53:35;100709.50;;;11.06;58.70
21276;BME280;36472;52.170;20.884;2023-10-09T12:56:09;100704.25;;;11.06;58.81
21276;BME280;36472;52.170;20.884;2023-10-09T12:58:39;100706.78;;;11.07;59.20
21276;BME280;36472;52.170;20.884;2023-10-09T13:01:22;100702.91;;;11.13;59.00
21276;BME280;36472;52.170;20.884;2023-10-09T13:03:51;100703.94;;;11.25;58.88
21276;BME280;36472;52.170;20.884;2023-10-09T13:06:20;100697.66;;;11.13;58.55
21276;BME280;36472;52.170;20.884;2023-10-09T13:08:52;100710.72;;;11.14;59.02
21276;BME280;36472;52.170;20.884;2023-10-09T13:11:27;100699.53;;;11.11;59.16
21276;BME280;36472;52.170;20.884;2023-10-09T13:13:56;100691.75;;;11.09;59.43
21276;BME280;36472;52.170;20.884;2023-10-09T13:16:37;100688.53;;;11.18;59.68
21276;BME280;36472;52.170;20.884;2023-10-09T13:19:06;100694.06;;;11.28;59.66
21276;BME280;36472;52.170;20.884;2023-10-09T13:21:38;100688.88;;;11.41;59.90
21276;BME280;36472;52.170;20.884;2023-10-09T13:24:08;100679.63;;;11.48;59.32
21276;BME280;36472;52.170;20.884;2023-10-09T13:26:42;100661.13;;;11.50;58.73
21276;BME280;36472;52.170;20.884;2023-10-09T13:29:14;100671.03;;;11.59;59.54
21276;BME280;36472;52.170;20.884;2023-10-09T13:31:52;100666.16;;;11.53;59.29
21276;BME280;36472;52.170;20.884;2023-10-09T13:34:26;100662.50;;;11.55;59.36
21276;BME280;36472;52.170;20.884;2023-10-09T13:36:56;100665.22;;;11.54;58.88
21276;BME280;36472;52.170;20.884;2023-10-09T13:39:27;100655.88;;;11.63;58.92
21276;BME280;36472;52.170;20.884;2023-10-09T13:42:05;100653.53;;;11.58;59.28
21276;BME280;36472;52.170;20.884;2023-10-09T13:44:35;100653.34;;;11.61;59.52
21276;BME280;36472;52.170;20.884;2023-10-09T13:47:06;100648.72;;;11.65;59.06
21276;BME280;36472;52.170;20.884;2023-10-09T13:49:48;100650.06;;;11.57;59.44
21276;BME280;36472;52.170;20.884;2023-10-09T13:52:18;100652.91;;;11.54;59.37
21276;BME280;36472;52.170;20.884;2023-10-09T13:54:50;100653.13;;;11.51;59.77
21276;BME280;36472;52.170;20.884;2023-10-09T13:57:19;100644.50;;;11.62;59.65
21276;BME280;36472;52.170;20.884;2023-10-09T13:59:50;100647.38;;;11.72;59.79
21276;BME280;36472;52.170;20.884;2023-10-09T14:02:20;100636.19;;;11.68;59.42
21276;BME280;36472;52.170;20.884;2023-10-09T14:04:49;100636.09;;;11.70;59.44
21276;BME280;36472;52.170;20.884;2023-10-09T14:07:20;100630.00;;;11.69;59.27
21276;BME280;36472;52.170;20.884;2023-10-09T14:09:49;100630.00;;;11.69;59.47
21276;BME280;36472;52.170;20.884;2023-10-09T14:12:35;100640.53;;;11.69;60.17
21276;BME280;36472;52.170;20.884;2023-10-09T14:15:10;100636.19;;;11.68;59.89
21276;BME280;36472;52.170;20.884;2023-10-09T14:17:46;100640.72;;;11.66;59.79